Time;durP1;ratioP1;P1;durP2;ratioP2;P2;SDS_P1;SDS_P2;PMS_P1;PMS_P2;Temp;Humidity;BMP_temperature;BMP_pressure;BME280_temperature;BME280_humidity;BME280_pressure;Samples;Min_cycle;Max_cycle;Signal;HPM_P1;HPM_P2
2023/10/02 00:01:52;;;;;;;12.95;8.20;;;;;;;15.71;74.10;101238.00;4179854;28;20124;-63
2023/10/02 00:06:16;;;;;;;16.83;9.23;;;;;;;15.67;74.34;101241.47;4177146;28;20689;-63
2023/10/02 00:08:31;;;;;;;17.33;8.88;;;;;;;15.69;74.50;101241.47;4175701;28;20047;-64
2023/10/02 00:10:34;;;;;;;14.20;8.18;;;;;;;15.67;74.20;101235.34;4177063;28;20493;-63
2023/10/02 00:12:36;;;;;;;15.90;9.48;;;;;;;15.67;74.64;101236.22;4179711;28;20033;-63
2023/10/02 00:14:41;;;;;;;17.20;8.50;;;;;;;15.66;74.42;101244.09;4185928;28;20041;-63
2023/10/02 00:16:58;;;;;;;19.30;9.38;;;;;;;15.66;74.25;101244.94;4179564;28;20465;-62
2023/10/02 00:19:18;;;;;;;15.15;8.25;;;;;;;15.64;74.38;101236.22;4179514;28;20059;-63
2023/10/02 00:21:22;;;;;;;15.30;8.50;;;;;;;15.61;74.64;101243.16;4179368;28;20309;-63
2023/10/02 00:23:27;;;;;;;15.80;8.70;;;;;;;15.61;75.04;101241.44;4179634;28;20041;-63
2023/10/02 00:25:30;;;;;;;14.68;9.13;;;;;;;15.61;74.53;101241.44;4179847;28;20478;-63
2023/10/02 00:27:34;;;;;;;16.98;9.10;;;;;;;15.60;75.09;101244.91;4179469;28;20040;-63
2023/10/02 00:29:51;;;;;;;14.82;9.40;;;;;;;15.60;74.99;101239.69;4178424;28;20036;-63
2023/10/02 00:31:53;;;;;;;14.98;8.35;;;;;;;15.57;75.01;101244.03;4175974;28;20075;-63
2023/10/02 00:33:56;;;;;;;13.93;8.02;;;;;;;15.57;74.72;101241.41;4179709;28;20128;-63
2023/10/02 00:35:59;;;;;;;15.98;9.13;;;;;;;15.55;75.32;101236.16;4178120;28;20573;-63
2023/10/02 00:38:02;;;;;;;14.90;8.73;;;;;;;15.54;75.20;101250.13;4178252;28;20029;-63
2023/10/02 00:40:08;;;;;;;14.55;8.60;;;;;;;15.52;75.13;101249.22;4170609;28;20041;-63
2023/10/02 00:42:10;;;;;;;14.32;8.63;;;;;;;15.48;75.57;101247.47;4177806;28;20041;-63
2023/10/02 00:44:13;;;;;;;13.60;8.55;;;;;;;15.50;75.10;101248.34;4178258;28;20064;-62
2023/10/02 00:46:23;;;;;;;15.30;8.73;;;;;;;15.47;75.24;101251.81;4161971;28;20033;-63
2023/10/02 00:48:28;;;;;;;13.15;8.20;;;;;;;15.48;75.14;101260.56;4175976;28;20434;-63
2023/10/02 00:50:48;;;;;;;13.95;8.02;;;;;;;15.50;75.47;101256.22;4178381;28;20087;-63
2023/10/02 00:52:56;;;;;;;13.90;8.18;;;;;;;15.46;74.82;101257.06;4176560;28;20120;-63
2023/10/02 00:55:05;;;;;;;13.88;8.07;;;;;;;15.45;74.84;101256.19;4174672;28;20075;-63
2023/10/02 00:57:16;;;;;;;19.02;9.55;;;;;;;15.48;74.94;101257.97;4177845;28;20033;-63
2023/10/02 00:59:23;;;;;;;15.73;8.95;;;;;;;15.44;74.61;101266.66;4161954;28;20060;-62
2023/10/02 01:01:26;;;;;;;17.38;8.60;;;;;;;15.42;74.94;101260.50;4177840;28;20045;-63
2023/10/02 01:04:06;;;;;;;14.40;7.93;;;;;;;15.38;74.55;101261.38;4180321;28;20478;-63
2023/10/02 01:05:54;;;;;;;18.25;8.77;;;;;;;15.33;74.47;101264.84;4182375;28;20044;-63
2023/10/02 01:07:57;;;;;;;15.07;8.40;;;;;;;15.30;74.92;101258.69;4155334;28;20120;-63
2023/10/02 01:10:08;;;;;;;14.23;8.55;;;;;;;15.32;75.27;101260.44;4181250;28;20521;-63
2023/10/02 01:12:16;;;;;;;14.35;8.88;;;;;;;15.31;75.03;101263.06;4172552;28;20045;-63
2023/10/02 01:14:40;;;;;;;13.35;8.02;;;;;;;15.31;75.05;101261.31;4178452;28;20037;-63
2023/10/02 01:16:50;;;;;;;14.38;7.75;;;;;;;15.29;74.79;101265.69;4188285;28;20045;-63
2023/10/02 01:18:55;;;;;;;14.73;8.32;;;;;;;15.29;75.35;101255.19;4182251;28;20033;-63
2023/10/02 01:21:00;;;;;;;16.20;8.53;;;;;;;15.29;74.73;101249.97;4181318;28;20033;-63
2023/10/02 01:23:15;;;;;;;15.27;8.80;;;;;;;15.30;75.02;101251.72;4179051;28;20490;-62
2023/10/02 01:25:23;;;;;;;13.63;7.63;;;;;;;15.29;74.64;101251.72;4179565;28;20033;-63
2023/10/02 01:27:40;;;;;;;15.57;7.95;;;;;;;15.28;75.01;101253.44;4177945;28;20088;-63
2023/10/02 01:29:43;;;;;;;16.77;8.48;;;;;;;15.27;75.39;101259.53;4189913;28;20082;-63
2023/10/02 01:31:48;;;;;;;13.25;7.70;;;;;;;15.26;75.27;101255.19;4189114;28;20068;-63
2023/10/02 01:33:52;;;;;;;11.65;7.32;;;;;;;15.27;75.28;101254.28;4178514;28;20136;-63
2023/10/02 01:35:56;;;;;;;13.95;7.43;;;;;;;15.27;74.84;101249.03;4180870;28;20069;-63
2023/10/02 01:38:02;;;;;;;15.15;8.60;;;;;;;15.27;75.34;101256.03;4180449;28;20036;-63
2023/10/02 01:42:27;;;;;;;13.60;7.30;;;;;;;15.23;75.43;101252.53;4169528;28;20037;-63
2023/10/02 01:44:30;;;;;;;13.57;7.88;;;;;;;15.23;75.82;101252.53;4172865;28;20038;-63
2023/10/02 01:46:37;;;;;;;14.63;7.93;;;;;;;15.22;75.72;101252.53;4170385;28;20454;-63
2023/10/02 01:48:44;;;;;;;13.73;7.77;;;;;;;15.21;75.05;101246.38;4169211;28;20033;-63
2023/10/02 01:50:46;;;;;;;11.95;6.90;;;;;;;15.22;75.42;101237.69;4171972;28;20048;-63
2023/10/02 01:52:49;;;;;;;14.35;8.20;;;;;;;15.23;75.77;101241.16;4178163;28;20037;-63
2023/10/02 01:54:54;;;;;;;17.42;8.27;;;;;;;15.23;75.09;101239.44;4180753;28;20119;-63
2023/10/02 01:56:59;;;;;;;16.23;8.52;;;;;;;15.18;74.58;101249.84;4180213;28;20048;-63
2023/10/02 01:59:09;;;;;;;15.82;8.40;;;;;;;15.14;74.96;101241.97;4180678;28;20029;-63
2023/10/02 02:01:13;;;;;;;15.32;7.85;;;;;;;15.09;75.55;101246.31;4180480;28;20040;-62
2023/10/02 02:03:16;;;;;;;14.45;8.27;;;;;;;15.07;75.08;101248.91;4180302;28;20449;-63
2023/10/02 02:05:19;;;;;;;15.85;7.75;;;;;;;15.06;75.14;101243.66;4180625;28;20036;-63
2023/10/02 02:07:22;;;;;;;16.33;7.95;;;;;;;15.07;75.56;101242.78;4180355;28;20040;-63
2023/10/02 02:09:26;;;;;;;15.70;7.07;;;;;;;15.06;75.40;101246.28;4180267;28;20102;-63
2023/10/02 02:11:29;;;;;;;14.82;8.43;;;;;;;15.04;75.47;101256.75;4180342;28;20039;-63
2023/10/02 02:13:43;;;;;;;14.43;8.60;;;;;;;15.04;75.11;101248.88;4168643;28;20034;-63
2023/10/02 02:15:51;;;;;;;16.05;8.45;;;;;;;15.00;75.89;101244.47;4163705;28;20139;-63
2023/10/02 02:17:54;;;;;;;14.00;7.80;;;;;;;14.99;75.46;101251.44;4161125;28;20065;-64
2023/10/02 02:20:10;;;;;;;16.25;8.13;;;;;;;14.98;75.64;101249.72;4180395;28;20040;-62
2023/10/02 02:22:13;;;;;;;14.35;7.45;;;;;;;14.99;76.14;101251.44;4172569;28;20119;-63
2023/10/02 02:24:16;;;;;;;11.40;7.03;;;;;;;15.01;75.39;101256.72;4172274;28;20037;-63
2023/10/02 02:26:21;;;;;;;13.32;7.57;;;;;;;15.00;75.44;101253.22;4196913;28;20048;-63
2023/10/02 02:28:25;;;;;;;11.48;6.82;;;;;;;15.00;75.89;101261.06;4179719;28;20522;-63
2023/10/02 02:30:28;;;;;;;14.93;7.97;;;;;;;15.00;75.76;101257.56;4179951;28;20028;-63
2023/10/02 02:32:44;;;;;;;13.68;8.20;;;;;;;15.00;76.14;101255.81;4179940;28;20037;-63
2023/10/02 02:34:48;;;;;;;12.73;7.50;;;;;;;14.98;75.73;101254.94;4179704;28;20075;-63
2023/10/02 02:36:54;;;;;;;14.65;7.80;;;;;;;14.98;75.83;101251.44;4180916;28;20080;-63
2023/10/02 02:41:18;;;;;;;14.05;8.20;;;;;;;14.94;75.76;101249.69;4166953;28;20052;-63
2023/10/02 02:43:22;;;;;;;19.38;8.77;;;;;;;14.93;76.03;101253.16;4181068;28;20037;-63
2023/10/02 02:45:28;;;;;;;14.20;7.68;;;;;;;14.94;76.31;101247.94;4180989;28;20044;-63
2023/10/02 02:47:51;;;;;;;12.85;8.13;;;;;;;14.94;76.33;101253.16;4180740;28;20094;-63
2023/10/02 02:49:58;;;;;;;15.13;8.32;;;;;;;14.94;75.70;101247.06;4170699;28;20044;-63
2023/10/02 02:52:00;;;;;;;14.82;8.38;;;;;;;14.92;76.34;101246.16;4179717;28;20045;-63
2023/10/02 02:54:05;;;;;;;14.27;8.38;;;;;;;14.92;76.44;101244.44;4181000;28;20466;-63
2023/10/02 02:56:18;;;;;;;14.02;8.75;;;;;;;14.91;75.86;101255.75;4181114;28;20033;-63
2023/10/02 02:58:21;;;;;;;14.68;8.68;;;;;;;14.88;76.01;101257.44;4188287;28;20039;-63
2023/10/02 03:00:29;;;;;;;12.57;7.40;;;;;;;14.86;75.97;101249.59;4179513;28;20049;-62
2023/10/02 03:02:33;;;;;;;14.10;8.57;;;;;;;14.82;75.79;101243.47;4171882;28;20045;-63
2023/10/02 03:04:38;;;;;;;15.05;8.68;;;;;;;14.82;76.10;101247.78;4180374;28;20056;-63
2023/10/02 03:06:42;;;;;;;15.82;8.60;;;;;;;14.81;75.38;101248.69;4180551;28;20525;-63
2023/10/02 03:08:45;;;;;;;17.97;8.80;;;;;;;14.79;75.76;101242.53;4162929;28;20037;-63
2023/10/02 03:10:57;;;;;;;16.80;8.88;;;;;;;14.79;76.44;101247.78;4180746;28;20037;-63
2023/10/02 03:13:00;;;;;;;15.85;8.70;;;;;;;14.75;76.07;101246.00;4178003;28;20391;-63
2023/10/02 03:15:05;;;;;;;18.48;8.95;;;;;;;14.74;75.96;101241.63;4175968;28;20491;-62
2023/10/02 03:19:39;;;;;;;15.50;9.35;;;;;;;14.73;75.57;101247.72;4219772;27;20947;-61
2023/10/02 03:21:42;;;;;;;15.68;9.00;;;;;;;14.74;75.77;101245.13;4206104;28;20493;-64
2023/10/02 03:23:44;;;;;;;14.55;8.70;;;;;;;14.74;75.82;101244.25;4210834;28;20447;-63
2023/10/02 03:25:47;;;;;;;15.45;9.05;;;;;;;14.75;75.80;101246.00;4209716;28;20075;-63
2023/10/02 03:27:49;;;;;;;13.52;8.40;;;;;;;14.73;75.52;101247.72;4205718;28;20037;-62
2023/10/02 03:29:52;;;;;;;18.08;9.52;;;;;;;14.73;75.89;101247.72;4201382;28;20041;-61
2023/10/02 03:31:57;;;;;;;15.57;9.25;;;;;;;14.73;75.98;101245.97;4200777;28;20041;-61
2023/10/02 03:34:01;;;;;;;14.90;8.35;;;;;;;14.72;75.42;101246.84;4195276;28;20555;-61
2023/10/02 03:36:08;;;;;;;14.43;8.55;;;;;;;14.68;75.19;101244.19;4183566;28;20120;-61
2023/10/02 03:38:13;;;;;;;14.73;8.57;;;;;;;14.64;75.29;101249.38;4201047;28;20044;-61
2023/10/02 03:40:20;;;;;;;16.35;8.50;;;;;;;14.64;76.10;101254.59;4202186;28;20039;-61
2023/10/02 03:42:25;;;;;;;13.80;8.20;;;;;;;14.61;75.26;101246.72;4202666;28;20036;-62
2023/10/02 03:44:28;;;;;;;15.18;8.48;;;;;;;14.62;75.93;101256.34;4197935;28;20056;-62
2023/10/02 03:46:37;;;;;;;18.02;8.48;;;;;;;14.62;76.25;101255.47;4202262;28;20032;-61
2023/10/02 03:48:41;;;;;;;15.70;9.07;;;;;;;14.61;75.14;101256.28;4200731;28;20040;-61
2023/10/02 03:50:44;;;;;;;16.50;8.52;;;;;;;14.59;75.46;101260.66;4198609;28;20445;-61
2023/10/02 03:53:12;;;;;;;15.15;8.30;;;;;;;14.59;74.96;101255.41;4204179;28;20530;-61
2023/10/02 03:55:18;;;;;;;12.50;7.70;;;;;;;14.53;75.55;101256.22;4201643;28;20508;-61
2023/10/02 03:57:37;;;;;;;13.65;8.82;;;;;;;14.52;75.78;101249.22;4201275;28;20044;-61
2023/10/02 03:59:52;;;;;;;16.33;7.70;;;;;;;14.53;75.28;101251.00;4201480;28;20040;-61
2023/10/02 04:01:57;;;;;;;14.73;7.93;;;;;;;14.52;75.76;101249.22;4201038;28;20040;-61
2023/10/02 04:04:19;;;;;;;14.80;8.10;;;;;;;14.50;75.79;101250.97;4200966;28;20041;-61
2023/10/02 04:06:33;;;;;;;15.50;8.30;;;;;;;14.43;76.45;101254.38;4202570;28;20028;-62
2023/10/02 04:08:37;;;;;;;14.77;8.57;;;;;;;14.36;75.83;101253.41;4197525;28;20037;-62
2023/10/02 04:10:56;;;;;;;14.25;8.25;;;;;;;14.35;76.32;101256.88;4200797;28;20040;-61
2023/10/02 04:13:01;;;;;;;13.70;7.40;;;;;;;14.37;76.31;101254.28;4200407;28;20127;-61
2023/10/02 04:15:11;;;;;;;15.05;9.30;;;;;;;14.37;76.78;101251.66;4200783;28;20032;-61
2023/10/02 04:17:20;;;;;;;16.45;8.65;;;;;;;14.38;76.23;101250.81;4201711;28;20044;-61
2023/10/02 04:19:23;;;;;;;14.63;8.30;;;;;;;14.40;76.64;101254.34;4198235;28;20319;-61
2023/10/02 04:21:26;;;;;;;15.77;8.48;;;;;;;14.43;76.86;101246.53;4200812;28;20086;-61
2023/10/02 04:23:29;;;;;;;15.30;8.20;;;;;;;14.43;76.58;101244.78;4201052;28;20045;-61
2023/10/02 04:25:35;;;;;;;13.30;7.95;;;;;;;14.46;75.73;101250.03;4195306;28;20032;-61
2023/10/02 04:32:18;;;;;;;15.10;8.38;;;;;;;14.40;76.16;101255.22;4185267;28;20510;-61
2023/10/02 04:34:29;;;;;;;14.52;8.20;;;;;;;14.37;76.26;101259.50;4186409;28;20039;-62
2023/10/02 04:36:34;;;;;;;13.10;8.30;;;;;;;14.30;76.31;101255.97;4185943;28;20036;-61
2023/10/02 04:38:49;;;;;;;12.57;6.95;;;;;;;14.28;76.66;101260.28;4188273;28;20033;-61
2023/10/02 04:40:55;;;;;;;;;;;;;;;14.16;76.69;101247.94;4191174;28;20028;-61
2023/10/02 04:42:57;;;;;;;14.48;8.80;;;;;;;14.19;76.70;101252.34;4190903;28;20302;-61
2023/10/02 04:45:20;;;;;;;17.02;9.25;;;;;;;14.27;76.90;101246.34;4189554;28;20407;-62
2023/10/02 04:47:23;;;;;;;18.58;9.18;;;;;;;14.29;76.29;101247.25;4187649;28;20070;-62
2023/10/02 04:49:29;;;;;;;16.20;8.95;;;;;;;14.30;77.20;101242.88;4190854;28;20116;-61
2023/10/02 04:51:30;;;;;;;18.33;10.65;;;;;;;14.30;76.85;101248.97;4190794;28;20028;-61
2023/10/02 04:53:35;;;;;;;18.08;10.32;;;;;;;14.30;76.86;101243.75;4187202;28;20037;-61
2023/10/02 04:55:41;;;;;;;23.77;11.50;;;;;;;14.32;76.71;101247.28;4190802;28;20036;-61
2023/10/02 04:57:50;;;;;;;17.90;10.82;;;;;;;14.31;76.37;101250.75;4191782;28;20419;-61
2023/10/02 04:59:54;;;;;;;20.83;10.65;;;;;;;14.30;76.52;101243.75;4188208;28;20058;-61
2023/10/02 05:02:17;;;;;;;17.48;10.05;;;;;;;14.28;77.24;101249.81;4188430;28;20042;-62
2023/10/02 05:04:21;;;;;;;16.98;9.57;;;;;;;14.23;77.26;101252.38;4190736;28;20052;-61
2023/10/02 05:11:07;;;;;;;16.17;9.13;;;;;;;14.17;76.82;101254.94;4188699;28;20053;-61
2023/10/02 05:13:11;;;;;;;14.18;8.95;;;;;;;14.14;77.13;101261.00;4187461;28;20041;-61
2023/10/02 05:15:20;;;;;;;14.40;9.55;;;;;;;14.17;77.31;101251.44;4192118;28;20041;-61
2023/10/02 05:20:04;;;;;;;14.32;8.75;;;;;;;14.20;76.80;101246.25;4187451;28;20083;-61
2023/10/02 05:22:07;;;;;;;17.83;9.32;;;;;;;14.21;76.71;101248.00;4192007;28;20036;-61
2023/10/02 05:24:12;;;;;;;16.48;9.70;;;;;;;14.23;76.84;101246.28;4188526;28;20518;-60
2023/10/02 05:26:29;;;;;;;15.75;9.35;;;;;;;14.22;77.16;101245.41;4188993;28;20407;-62
2023/10/02 05:28:44;;;;;;;19.67;10.07;;;;;;;14.21;76.43;101246.25;4186184;28;20068;-61
2023/10/02 05:30:46;;;;;;;15.55;9.02;;;;;;;14.16;75.87;101247.94;4189192;28;20509;-62
2023/10/02 05:32:51;;;;;;;13.85;8.15;;;;;;;14.18;76.07;101251.47;4185904;28;20498;-62
2023/10/02 05:35:04;;;;;;;16.38;9.55;;;;;;;14.24;76.70;101253.28;4189183;28;20494;-62
2023/10/02 05:37:11;;;;;;;18.48;8.68;;;;;;;14.21;76.18;101254.13;4190001;28;20252;-61
2023/10/02 05:39:29;;;;;;;18.02;8.65;;;;;;;14.17;76.01;101251.44;4185137;28;20099;-62
2023/10/02 05:41:41;;;;;;;17.65;9.48;;;;;;;14.16;76.84;101258.41;4185240;28;20098;-62
2023/10/02 05:43:56;;;;;;;15.50;8.82;;;;;;;14.17;76.04;101252.31;4188061;28;20063;-62
2023/10/02 05:46:01;;;;;;;13.32;7.93;;;;;;;14.15;76.22;101261.91;4184451;28;20121;-62
2023/10/02 05:48:07;;;;;;;15.60;9.15;;;;;;;14.15;76.57;101267.13;4188255;28;20041;-62
2023/10/02 05:50:11;;;;;;;13.55;8.05;;;;;;;14.15;76.50;101264.50;4185704;28;20399;-62
2023/10/02 05:52:14;;;;;;;12.90;8.63;;;;;;;14.14;76.79;101260.13;4188144;28;20045;-62
2023/10/02 05:54:19;;;;;;;15.20;8.43;;;;;;;14.15;76.74;101264.50;4188195;28;20064;-61
2023/10/02 05:56:24;;;;;;;15.68;9.13;;;;;;;14.13;76.20;101264.50;4190971;28;20094;-61
2023/10/02 05:58:31;;;;;;;14.95;8.93;;;;;;;14.12;76.15;101262.72;4188606;28;20444;-62
2023/10/02 06:00:35;;;;;;;14.95;9.05;;;;;;;14.13;76.86;101268.81;4184320;28;20500;-62
2023/10/02 06:02:56;;;;;;;17.48;8.43;;;;;;;14.13;76.69;101271.44;4188007;28;20119;-62
2023/10/02 06:05:11;;;;;;;17.77;9.02;;;;;;;14.09;76.78;101269.63;4184502;28;20086;-64
2023/10/02 06:07:40;;;;;;;12.98;7.85;;;;;;;14.09;76.57;101269.63;4189934;28;20041;-62
2023/10/02 06:09:46;;;;;;;15.13;8.32;;;;;;;14.03;76.94;101274.78;4190055;28;20032;-62
2023/10/02 06:12:02;;;;;;;15.02;8.25;;;;;;;14.04;76.84;101276.56;4180601;28;20514;-63
2023/10/02 06:14:12;;;;;;;;;;;;;;;13.96;77.10;101287.78;4188313;28;20040;-62
2023/10/02 06:16:17;;;;;;;14.90;8.82;;;;;;;14.04;77.42;101276.56;4191927;28;19932;-62
2023/10/02 06:18:26;;;;;;;;;;;;;;;14.03;76.86;101290.47;4189248;28;20032;-62
2023/10/02 06:20:30;;;;;;;18.02;9.63;;;;;;;14.08;77.44;101280.97;4189212;28;20282;-62
2023/10/02 06:22:33;;;;;;;15.68;8.48;;;;;;;14.15;76.95;101285.44;4192388;28;20097;-62
2023/10/02 06:24:36;;;;;;;16.10;9.13;;;;;;;14.19;77.25;101288.94;4192151;28;20037;-62
2023/10/02 06:26:49;;;;;;;16.10;9.27;;;;;;;14.22;76.87;101279.41;4187659;28;20037;-62
2023/10/02 06:29:13;;;;;;;18.13;8.10;;;;;;;14.23;76.32;101283.75;4181289;28;20075;-62
2023/10/02 06:31:30;;;;;;;17.30;8.70;;;;;;;14.27;76.65;101284.69;4188849;28;20040;-62
2023/10/02 06:33:36;;;;;;;15.30;8.60;;;;;;;14.29;76.79;101273.41;4187878;28;20063;-62
2023/10/02 06:35:44;;;;;;;15.23;8.77;;;;;;;14.34;76.27;101277.78;4187896;28;20501;-62
2023/10/02 06:37:47;;;;;;;15.43;8.43;;;;;;;14.34;76.60;101280.41;4187340;28;20127;-62
2023/10/02 06:40:04;;;;;;;13.45;7.72;;;;;;;14.37;76.52;101281.34;4186477;28;20501;-63
2023/10/02 06:42:07;;;;;;;13.32;7.97;;;;;;;14.38;76.21;101283.06;4185684;28;20052;-62
2023/10/02 06:44:15;;;;;;;14.77;8.48;;;;;;;14.39;76.13;101291.81;4187735;28;20510;-62
2023/10/02 06:46:19;;;;;;;12.43;7.05;;;;;;;14.40;76.81;101293.56;4186663;28;20064;-62
2023/10/02 06:48:24;;;;;;;17.52;8.88;;;;;;;14.43;75.93;101293.59;4182668;28;20397;-62
2023/10/02 06:50:31;;;;;;;17.95;9.27;;;;;;;14.49;75.78;101291.06;4183728;28;20040;-62
2023/10/02 06:52:33;;;;;;;18.33;9.05;;;;;;;14.52;75.44;101295.47;4186760;28;20040;-62
2023/10/02 06:54:42;;;;;;;17.33;9.23;;;;;;;14.55;76.16;101290.25;4186804;28;20111;-62
2023/10/02 06:56:47;;;;;;;14.15;7.60;;;;;;;14.58;75.67;101285.06;4187686;28;20163;-63
2023/10/02 06:58:52;;;;;;;17.08;8.57;;;;;;;14.61;75.79;101291.22;4187258;28;20045;-63
2023/10/02 07:01:01;;;;;;;18.85;8.27;;;;;;;14.63;75.88;101289.50;4185555;28;20036;-62
2023/10/02 07:03:06;;;;;;;15.05;8.52;;;;;;;14.68;76.09;101289.56;4188640;28;20379;-62
2023/10/02 07:05:10;;;;;;;;;;;;;;;14.63;75.31;101279.03;4188178;28;20043;-62
2023/10/02 07:07:14;;;;;;;16.92;8.43;;;;;;;14.69;75.70;101290.41;4182062;28;19975;-63
2023/10/02 07:09:18;;;;;;;13.82;8.05;;;;;;;14.76;75.90;101295.75;4185439;28;20044;-62
2023/10/02 07:11:26;;;;;;;17.10;7.80;;;;;;;14.84;75.58;101295.81;4188909;28;20494;-62
2023/10/02 07:13:31;;;;;;;15.63;8.27;;;;;;;14.91;75.39;101295.03;4187206;28;20036;-62
2023/10/02 07:15:38;;;;;;;13.75;7.85;;;;;;;14.95;75.02;101295.91;4186180;28;20075;-62
2023/10/02 07:17:47;;;;;;;15.48;7.78;;;;;;;14.99;74.57;101292.47;4186909;28;20445;-62
2023/10/02 07:19:52;;;;;;;14.65;9.45;;;;;;;15.03;75.46;101293.41;4185934;28;20072;-62
2023/10/02 07:21:54;;;;;;;17.83;8.93;;;;;;;15.08;75.12;101294.28;4186803;28;20544;-62
2023/10/02 07:24:02;;;;;;;15.65;9.20;;;;;;;15.16;75.03;101288.25;4184519;28;20491;-62
2023/10/02 07:26:05;;;;;;;14.23;8.00;;;;;;;15.18;75.27;101293.50;4188640;28;20039;-62
2023/10/02 07:28:09;;;;;;;14.20;7.75;;;;;;;15.23;75.05;101286.59;4188467;28;20071;-62
2023/10/02 07:30:24;;;;;;;16.30;8.52;;;;;;;15.30;74.47;101282.25;4188685;28;20123;-63
2023/10/02 07:32:28;;;;;;;17.92;7.60;;;;;;;15.33;75.04;101280.56;4190249;28;20063;-63
2023/10/02 07:34:31;;;;;;;16.98;8.93;;;;;;;15.39;74.81;101278.84;4188933;28;20036;-62
2023/10/02 07:36:44;;;;;;;14.05;7.93;;;;;;;15.48;74.46;101273.69;4189999;28;20033;-62
2023/10/02 07:38:47;;;;;;;13.20;8.07;;;;;;;15.52;74.64;101278.94;4188460;28;20383;-62
2023/10/02 07:40:51;;;;;;;19.13;8.30;;;;;;;15.57;74.93;101288.59;4188169;28;20044;-62
2023/10/02 07:42:54;;;;;;;15.07;7.82;;;;;;;15.64;74.50;101279.91;4184428;28;20037;-62
2023/10/02 07:45:11;;;;;;;14.00;7.28;;;;;;;15.69;74.13;101276.41;4188363;28;20064;-62
2023/10/02 07:47:21;;;;;;;13.90;7.47;;;;;;;15.72;74.07;101278.19;4184113;28;20036;-62
2023/10/02 07:49:24;;;;;;;13.82;7.65;;;;;;;15.78;74.11;101285.22;4187577;28;20379;-62
2023/10/02 07:51:35;;;;;;;19.67;9.05;;;;;;;15.82;74.27;101272.16;4184994;28;20037;-62
2023/10/02 07:53:44;;;;;;;15.45;8.13;;;;;;;15.90;74.04;101274.81;4188308;28;20401;-62
2023/10/02 07:55:48;;;;;;;15.30;7.82;;;;;;;15.98;73.84;101278.38;4187378;28;20044;-62
2023/10/02 07:57:58;;;;;;;17.38;9.02;;;;;;;16.11;73.30;101278.44;4188561;28;20467;-62
2023/10/02 08:00:04;;;;;;;16.10;8.32;;;;;;;16.15;73.02;101277.56;4188275;28;20414;-62
2023/10/02 08:02:21;;;;;;;16.80;8.68;;;;;;;16.18;72.69;101270.59;4186085;28;20037;-62
2023/10/02 08:04:47;;;;;;;16.92;8.73;;;;;;;16.21;73.13;101282.84;4187064;28;20127;-62
2023/10/02 08:06:49;;;;;;;17.02;8.88;;;;;;;16.33;72.46;101280.28;4187475;28;20616;-62
2023/10/02 08:09:35;;;;;;;17.25;9.63;;;;;;;16.37;72.08;101279.41;4191750;28;20334;-63
2023/10/02 08:11:39;;;;;;;17.05;8.95;;;;;;;16.38;72.10;101267.16;4187610;28;20235;-62
2023/10/02 08:13:48;;;;;;;15.68;8.65;;;;;;;16.39;72.32;101268.91;4178106;28;20068;-62
2023/10/02 08:15:51;;;;;;;13.88;8.43;;;;;;;16.43;72.31;101270.69;4185810;28;20162;-62
2023/10/02 08:18:14;;;;;;;15.05;7.55;;;;;;;16.48;72.34;101268.94;4184045;28;20041;-63
2023/10/02 08:20:24;;;;;;;16.50;9.07;;;;;;;16.63;72.21;101267.22;4184563;28;20406;-63
2023/10/02 08:22:35;;;;;;;16.30;8.90;;;;;;;16.67;72.17;101269.00;4183458;28;20052;-63
2023/10/02 08:24:39;;;;;;;18.85;9.10;;;;;;;16.76;71.60;101263.75;4190662;28;20051;-63
2023/10/02 08:26:44;;;;;;;16.60;7.82;;;;;;;16.80;71.36;101268.13;4188780;28;20032;-64
2023/10/02 08:28:52;;;;;;;18.42;9.82;;;;;;;16.79;71.46;101273.38;4194826;28;20036;-63
2023/10/02 08:31:01;;;;;;;17.23;9.15;;;;;;;16.91;70.95;101271.69;4194113;28;20132;-63
2023/10/02 08:33:08;;;;;;;19.45;9.43;;;;;;;16.98;70.69;101263.81;4199378;28;20086;-63
2023/10/02 08:35:31;;;;;;;17.52;10.20;;;;;;;17.02;70.26;101262.94;4189726;28;20094;-63
2023/10/02 08:37:34;;;;;;;19.73;10.00;;;;;;;17.08;69.85;101266.47;4182154;28;20132;-63
2023/10/02 08:39:38;;;;;;;24.50;11.90;;;;;;;17.25;69.56;101262.94;4182611;28;20119;-63
2023/10/02 08:41:44;;;;;;;17.80;9.05;;;;;;;17.27;69.58;101266.44;4194920;28;20455;-63
2023/10/02 08:43:48;;;;;;;20.33;10.68;;;;;;;17.32;69.27;101267.31;4199301;28;20471;-63
2023/10/02 08:45:52;;;;;;;19.23;10.18;;;;;;;17.34;68.93;101262.94;4199169;28;20041;-63
2023/10/02 08:47:54;;;;;;;15.90;8.52;;;;;;;17.43;68.92;101268.19;4192421;28;20036;-64
2023/10/02 08:50:04;;;;;;;20.55;10.43;;;;;;;17.56;68.20;101268.16;4190629;28;20072;-63
2023/10/02 08:52:11;;;;;;;17.75;9.48;;;;;;;17.57;68.29;101267.28;4182065;28;20057;-64
2023/10/02 08:54:15;;;;;;;17.98;9.18;;;;;;;17.58;68.44;101272.53;4185902;28;20497;-64
2023/10/02 08:56:24;;;;;;;21.70;11.20;;;;;;;17.63;68.16;101270.78;4184636;28;20060;-64
2023/10/02 08:58:29;;;;;;;19.55;10.48;;;;;;;17.74;68.17;101267.25;4186806;28;20601;-63
2023/10/02 09:00:36;;;;;;;20.95;9.82;;;;;;;17.85;67.43;101269.84;4190891;28;20116;-63
2023/10/02 09:02:41;;;;;;;16.13;8.35;;;;;;;17.88;67.72;101261.94;4186355;28;20123;-63
2023/10/02 09:05:09;;;;;;;18.02;9.40;;;;;;;17.93;67.64;101263.72;4191972;28;20040;-64
2023/10/02 09:07:23;;;;;;;18.42;10.30;;;;;;;18.06;67.22;101269.81;4190164;28;20068;-64
2023/10/02 09:09:27;;;;;;;17.98;8.73;;;;;;;18.10;67.02;101263.66;4190728;28;20429;-64
2023/10/02 09:11:34;;;;;;;16.25;9.52;;;;;;;18.24;67.40;101262.72;4189410;28;20480;-64
2023/10/02 09:13:36;;;;;;;16.52;9.55;;;;;;;18.42;66.29;101257.34;4190742;28;20082;-64
2023/10/02 09:15:45;;;;;;;18.63;10.18;;;;;;;18.43;66.35;101259.13;4188537;28;20090;-64
2023/10/02 09:17:49;;;;;;;16.27;8.30;;;;;;;18.53;66.14;101264.31;4187436;28;20043;-64
2023/10/02 09:20:00;;;;;;;19.10;9.30;;;;;;;18.67;66.21;101257.22;4185500;28;20040;-64
2023/10/02 09:22:10;;;;;;;16.33;9.20;;;;;;;18.78;65.56;101265.94;4187450;28;20029;-65
2023/10/02 09:24:20;;;;;;;17.15;8.85;;;;;;;18.87;65.08;101259.75;4190435;28;20063;-64
2023/10/02 09:26:24;;;;;;;18.58;9.30;;;;;;;18.97;64.60;101258.78;4190206;28;20052;-64
2023/10/02 09:28:40;;;;;;;16.67;9.45;;;;;;;19.11;63.83;101256.03;4182535;28;20128;-64
2023/10/02 09:30:45;;;;;;;16.88;9.52;;;;;;;19.16;63.35;101251.59;4185192;28;20045;-64
2023/10/02 09:32:49;;;;;;;16.38;8.40;;;;;;;19.26;63.37;101248.88;4187857;28;20033;-64
2023/10/02 09:35:14;;;;;;;20.00;9.63;;;;;;;19.36;63.46;101245.25;4179089;28;20041;-63
2023/10/02 09:37:37;;;;;;;18.58;9.35;;;;;;;19.52;62.84;101246.88;4173238;28;20479;-63
2023/10/02 09:40:03;;;;;;;19.88;9.70;;;;;;;19.62;62.70;101236.22;4182369;28;20045;-63
2023/10/02 09:42:07;;;;;;;19.95;9.90;;;;;;;19.77;62.48;101233.44;4181979;28;20402;-63
2023/10/02 09:44:16;;;;;;;17.42;9.13;;;;;;;19.86;62.87;101229.84;4183119;28;20041;-63
2023/10/02 09:46:22;;;;;;;18.85;9.05;;;;;;;19.88;62.05;101239.47;4175679;28;20049;-63
2023/10/02 09:49:01;;;;;;;15.07;9.25;;;;;;;19.92;61.67;101234.13;4191623;28;20060;-63
2023/10/02 09:51:08;;;;;;;18.80;9.68;;;;;;;20.07;62.17;101241.88;4185964;28;20053;-63
2023/10/02 09:53:16;;;;;;;19.15;9.95;;;;;;;20.30;60.39;101233.66;4180592;28;20132;-63
2023/10/02 09:55:37;;;;;;;19.25;10.60;;;;;;;20.38;60.33;101230.91;4186434;28;20489;-64
2023/10/02 09:57:49;;;;;;;16.13;9.25;;;;;;;20.37;60.54;101237.97;4170048;28;20128;-63
2023/10/02 09:59:55;;;;;;;17.02;9.82;;;;;;;20.31;60.45;101230.13;4169167;28;20088;-64
2023/10/02 10:05:39;;;;;;;18.50;9.85;;;;;;;20.45;60.38;101222.00;4169318;28;20044;-63
2023/10/02 10:08:18;;;;;;;17.50;9.73;;;;;;;20.64;60.71;101217.31;4165366;28;20029;-64
2023/10/02 10:10:27;;;;;;;16.65;8.45;;;;;;;20.70;60.95;101217.25;4168995;28;20052;-64
2023/10/02 10:12:50;;;;;;;17.88;9.65;;;;;;;20.81;60.72;101214.44;4169806;28;20043;-64
2023/10/02 10:15:25;;;;;;;15.35;9.75;;;;;;;21.03;58.92;101211.44;4169691;28;20041;-65